Share

Katmai National Park, AK

5:08 PM AKDT on April 23, 2014 (GMT -0800)
King Salmon (PAKN) Elev 46 ft | 58.68 °N, 156.66 °W | Change Station

Current weather conditions updated 14 minutes ago

Partly Cloudy
Partly Cloudy
56 °F
Feels Like 56 °F
N
4
Wind Variable Wind from Variable
Sunrise 6:51 AM
Sunset 10:00 PM
Moon Waning Crescent

Tomorrow is forecast to be Cooler than today. Periods of light rain early tomorrow night.

Pressure 29.55 in
Visibility 10.0 miles
Clouds Few 7000 ft
Dew Point 24 °F
Humidity 29%
Rainfall 0.00 in
Snow Depth Not available.
UV 4 out of 16
Pollen Not available.
Air Quality Not available.
Flu Activity Sporadic
METAR PAKN 240054Z VRB03KT 10SM FEW070 13/M04 A2955 RMK AO2 SLP007 T01331044

More Conditions Fewer Conditions

Pressure 29.55 in
Visibility 10.0 miles
Clouds Few 7000 ft
Dew Point 24 °F
Humidity 29%
Rainfall 0.00 in
Snow Depth Not available.
UV 4 out of 16
Pollen Not available.
Air Quality Not available.
Flu Activity Sporadic
METAR PAKN 240054Z VRB03KT 10SM FEW070 13/M04 A2955 RMK AO2 SLP007 T01331044

More Conditions Fewer Conditions

10-Day Weather Forecast

Almanac

Astronomy

Apr. 23, 2014 Rise Set
Actual Time 6:51 AM AKDT 10:00 PM AKDT
Civil Twilight 6:04 AM AKDT 10:47 PM AKDT
Nautical Twilight 5:00 AM AKDT 11:52 PM AKDT
Astronomical Twilight 3:14 AM AKDT 1:48 AM AKDT
Moon 4:51 AM AKDT (4/23) 3:04 PM AKDT (4/23)
Length of Visible Light 16h 42m
Length of Day
15h 08m
Tomorrow will be 5m 1s longer.
Waning Crescent, 31% of the Moon is Illuminated
Today
Waning Crescent
Apr 29
New
May 6
First Quarter
May 14
Full
May 21
Last Quarter

Today's Extremes

State Highs State Lows

Community

  • Nestled In
    Nestled In
  • Stunning Sunrise
    Stunning Sunrise
  • spring flowers
    spring flowers
  • Earth Day Spectrum Ove' Blue
    Earth Day Spectrum Ove' Blue
  • BARN B&W
    BARN B&W

WunderPhotos

Upload Photos

1,704,482 photos uploaded!

Nearby

Snow Depth

Station Depth Elevation
Port Graham 2 in 300 ft
Mcneil Canyon 3 in 1320 ft
MF Bradley River 17 in 2300 ft
Nuka Glacier 28 in 1250 ft
Cooper Lake 18 in 1200 ft

Coastal Water Temperatures

Place Temperature
No Stations Reporting

Earthquake Activity

City Distance Mag. Time & Date
No recent earthquake activity has been reported nearby.
Minimum magnitude displayed is 2.5.

Nearby Weather Stations

Station Location Temp. Windchill Dew Point Humidity Wind Precip. Elev Updated Type
MesoWest LOWER MULCHATNA , South Naknek, AK 48 °F 48 °F - - North  at  - 0.00 in / hr 319 ft 4:00 PM AKDT MADIS

Show More Stations Show Fewer Stations

What do you think?

We're not finished. Please let us know what you like, what you don't like, and what you are still missing.